General Mitchell International Airport
KMKE : now visible

Aeroporto :











RITROVATECI SU...

 
LOGIN :

Iscrizione | Disclaimer

   EN    FR    IT 

 









Sommario :    VFR   VFR Marginale   IFR   IFR Intensivo   IFR Molto Intensivo
Visibilità : 
Base nubi : 
>= 8 km
>= 3000ft
5 / 8 km
1000 / 3000 ft
1500m / 5 km
500 / 1000 ft
800 / 1500m
200 / 500 ft
< 800m
< 200 ft
Simboli :   Temporali  Nebbia  Neve Forte  Precipitazioni Forti  Vento > 20 kt







- Altitudine del aeroporto : 723 ft
- Codice IATA : MKE


KMKE - General Mitchell International

ULTIMO METAR :
  • 201352Z 01014G22KT 10SM FEW045 08/M03 A2989 RMK AO2 SLP124 T00781033

METARs OBSOLETI :
  • 201252Z 01013G21KT 10SM FEW040 07/M04 A2988 RMK AO2 SLP121 T00671039
  • 201152Z 01014KT 10SM FEW040 06/M04 A2987 RMK AO2 SLP120 T00561044 10061 20050 56004

TAF KMKE
Valido dal 20 a 12 ore il 21 a 18 ore UTC


201120Z 2012/2118 01010G15KT P6SM SKC
FM201500 01011G18KT P6SM SKC
FM202300 03006KT P6SM SKC
FM211100 20006KT P6SM SCT200
FM211700 16010KT P6SM FEW200
FIR KZAU / America del Nord



MetMap, La meteo Aeronautica in un colpo d'occhio ! - Copyright ORBIFLY Dicembre 2007 - Disclaimer

ORBIFLY MET'MAP TEAM :

Programmazione e sviluppo : Alexandra Zaïnal
Concezione e sviluppo : Baudouin d'Aumeries
Co-Programmazione e sviluppo : Marc-Olivier Méhu
Supporto tecnico e logistico : Manuel Goepfert
Aiuto per la traduzione : Arnaldo La Scala

Contatto : metmap@orbifly.com




FONTI E CREDITI :

   NOAA       Earth
Advisory